sensor_id;sensor_type;location;lat;lon;timestamp;temperature;humidity
38746;DHT22;24488;0.000;0.000;2023-05-10T00:01:07;22.80;49.60
38746;DHT22;24488;0.000;0.000;2023-05-10T00:03:32;22.80;49.60
38746;DHT22;24488;0.000;0.000;2023-05-10T00:05:58;22.80;49.70
38746;DHT22;24488;0.000;0.000;2023-05-10T00:08:24;22.70;49.60
38746;DHT22;24488;0.000;0.000;2023-05-10T00:10:49;22.80;49.50
38746;DHT22;24488;0.000;0.000;2023-05-10T00:13:15;22.90;49.60
38746;DHT22;24488;0.000;0.000;2023-05-10T00:15:41;22.80;49.50
38746;DHT22;24488;0.000;0.000;2023-05-10T00:18:06;22.80;49.60
38746;DHT22;24488;0.000;0.000;2023-05-10T00:20:32;22.80;49.60
38746;DHT22;24488;0.000;0.000;2023-05-10T00:22:57;22.80;49.50
38746;DHT22;24488;0.000;0.000;2023-05-10T00:25:23;22.80;49.50
38746;DHT22;24488;0.000;0.000;2023-05-10T00:27:48;22.80;49.60
38746;DHT22;24488;0.000;0.000;2023-05-10T00:30:14;22.70;49.50
38746;DHT22;24488;0.000;0.000;2023-05-10T00:32:40;22.80;49.50
38746;DHT22;24488;0.000;0.000;2023-05-10T00:35:06;22.90;49.60
38746;DHT22;24488;0.000;0.000;2023-05-10T00:37:32;22.80;49.60
38746;DHT22;24488;0.000;0.000;2023-05-10T00:39:57;22.90;49.70
38746;DHT22;24488;0.000;0.000;2023-05-10T00:42:23;22.90;50.20
38746;DHT22;24488;0.000;0.000;2023-05-10T00:44:48;22.80;49.60
38746;DHT22;24488;0.000;0.000;2023-05-10T00:47:14;22.80;49.70
38746;DHT22;24488;0.000;0.000;2023-05-10T00:49:41;22.80;49.60
38746;DHT22;24488;0.000;0.000;2023-05-10T00:52:06;22.80;49.60
38746;DHT22;24488;0.000;0.000;2023-05-10T00:54:33;22.80;49.70
38746;DHT22;24488;0.000;0.000;2023-05-10T00:56:59;22.80;49.60
38746;DHT22;24488;0.000;0.000;2023-05-10T00:59:24;22.90;49.60
38746;DHT22;24488;0.000;0.000;2023-05-10T01:01:50;22.80;49.60
38746;DHT22;24488;0.000;0.000;2023-05-10T01:04:16;22.80;49.10
38746;DHT22;24488;0.000;0.000;2023-05-10T01:06:42;22.80;49.60
38746;DHT22;24488;0.000;0.000;2023-05-10T01:09:08;22.70;49.60
38746;DHT22;24488;0.000;0.000;2023-05-10T01:11:38;22.80;49.50
38746;DHT22;24488;0.000;0.000;2023-05-10T01:14:03;22.70;50.10
38746;DHT22;24488;0.000;0.000;2023-05-10T01:16:34;22.70;49.60
38746;DHT22;24488;0.000;0.000;2023-05-10T01:19:04;22.60;49.60
38746;DHT22;24488;0.000;0.000;2023-05-10T01:24:36;22.40;49.50
38746;DHT22;24488;0.000;0.000;2023-05-10T01:27:13;22.60;49.50
38746;DHT22;24488;0.000;0.000;2023-05-10T01:30:13;22.60;49.50
38746;DHT22;24488;0.000;0.000;2023-05-10T01:33:10;22.60;49.60
38746;DHT22;24488;0.000;0.000;2023-05-10T01:35:52;22.60;49.50
38746;DHT22;24488;0.000;0.000;2023-05-10T01:38:22;22.60;49.50
38746;DHT22;24488;0.000;0.000;2023-05-10T01:41:35;22.50;49.50
38746;DHT22;24488;0.000;0.000;2023-05-10T01:46:56;22.50;49.40
38746;DHT22;24488;0.000;0.000;2023-05-10T01:49:29;22.50;49.50
38746;DHT22;24488;0.000;0.000;2023-05-10T01:51:59;22.40;49.50
38746;DHT22;24488;0.000;0.000;2023-05-10T01:54:27;22.50;49.50
38746;DHT22;24488;0.000;0.000;2023-05-10T01:56:59;22.40;49.40
38746;DHT22;24488;0.000;0.000;2023-05-10T01:59:28;22.50;49.40
38746;DHT22;24488;0.000;0.000;2023-05-10T02:01:57;22.40;49.40
38746;DHT22;24488;0.000;0.000;2023-05-10T02:04:24;22.40;49.40
38746;DHT22;24488;0.000;0.000;2023-05-10T02:06:50;22.50;49.40
38746;DHT22;24488;0.000;0.000;2023-05-10T02:09:16;22.50;49.40
38746;DHT22;24488;0.000;0.000;2023-05-10T02:11:43;22.50;50.00
38746;DHT22;24488;0.000;0.000;2023-05-10T02:14:09;22.50;49.40
38746;DHT22;24488;0.000;0.000;2023-05-10T02:16:36;22.80;49.70
38746;DHT22;24488;0.000;0.000;2023-05-10T02:19:03;22.40;49.40
38746;DHT22;24488;0.000;0.000;2023-05-10T02:21:29;22.50;49.40
38746;DHT22;24488;0.000;0.000;2023-05-10T02:23:56;23.40;49.80
38746;DHT22;24488;0.000;0.000;2023-05-10T02:26:22;22.20;49.30
38746;DHT22;24488;0.000;0.000;2023-05-10T02:28:48;22.40;49.70
38746;DHT22;24488;0.000;0.000;2023-05-10T02:31:14;22.40;49.40
38746;DHT22;24488;0.000;0.000;2023-05-10T02:33:40;22.40;49.40
38746;DHT22;24488;0.000;0.000;2023-05-10T02:36:07;22.30;49.40
38746;DHT22;24488;0.000;0.000;2023-05-10T02:38:33;22.40;49.40
38746;DHT22;24488;0.000;0.000;2023-05-10T02:40:59;22.40;49.40
38746;DHT22;24488;0.000;0.000;2023-05-10T02:43:26;22.20;49.30
38746;DHT22;24488;0.000;0.000;2023-05-10T02:45:53;22.30;49.30
38746;DHT22;24488;0.000;0.000;2023-05-10T02:48:19;22.40;49.40
38746;DHT22;24488;0.000;0.000;2023-05-10T02:50:45;22.30;49.90
38746;DHT22;24488;0.000;0.000;2023-05-10T02:53:14;22.30;49.30
38746;DHT22;24488;0.000;0.000;2023-05-10T02:55:41;22.30;49.40
38746;DHT22;24488;0.000;0.000;2023-05-10T02:58:10;22.30;49.40
38746;DHT22;24488;0.000;0.000;2023-05-10T03:00:36;22.20;49.30
38746;DHT22;24488;0.000;0.000;2023-05-10T03:03:01;22.20;49.30
38746;DHT22;24488;0.000;0.000;2023-05-10T03:05:27;22.20;49.20
38746;DHT22;24488;0.000;0.000;2023-05-10T03:07:52;22.20;49.20
38746;DHT22;24488;0.000;0.000;2023-05-10T03:10:18;22.30;49.40
38746;DHT22;24488;0.000;0.000;2023-05-10T03:15:22;22.30;49.30
38746;DHT22;24488;0.000;0.000;2023-05-10T03:20:46;22.30;49.30
38746;DHT22;24488;0.000;0.000;2023-05-10T03:23:26;22.20;49.30
38746;DHT22;24488;0.000;0.000;2023-05-10T03:25:52;22.20;49.30
38746;DHT22;24488;0.000;0.000;2023-05-10T03:28:18;22.20;49.30
38746;DHT22;24488;0.000;0.000;2023-05-10T03:30:46;22.20;49.30
38746;DHT22;24488;0.000;0.000;2023-05-10T03:33:11;22.20;49.30
38746;DHT22;24488;0.000;0.000;2023-05-10T03:35:38;22.20;49.30
38746;DHT22;24488;0.000;0.000;2023-05-10T03:38:04;22.20;49.30
38746;DHT22;24488;0.000;0.000;2023-05-10T03:40:30;22.20;49.30
38746;DHT22;24488;0.000;0.000;2023-05-10T03:43:00;22.10;49.30
38746;DHT22;24488;0.000;0.000;2023-05-10T03:45:25;22.20;49.30
38746;DHT22;24488;0.000;0.000;2023-05-10T03:47:51;22.20;49.30
38746;DHT22;24488;0.000;0.000;2023-05-10T03:50:17;22.10;49.20
38746;DHT22;24488;0.000;0.000;2023-05-10T03:52:43;22.10;49.30
38746;DHT22;24488;0.000;0.000;2023-05-10T03:55:09;22.20;49.40
38746;DHT22;24488;0.000;0.000;2023-05-10T03:57:35;22.10;49.30
38746;DHT22;24488;0.000;0.000;2023-05-10T04:00:00;22.20;49.30
38746;DHT22;24488;0.000;0.000;2023-05-10T04:02:26;22.20;49.30
38746;DHT22;24488;0.000;0.000;2023-05-10T04:04:52;22.00;49.20
38746;DHT22;24488;0.000;0.000;2023-05-10T04:07:17;22.10;49.30
38746;DHT22;24488;0.000;0.000;2023-05-10T04:09:43;22.20;49.30
38746;DHT22;24488;0.000;0.000;2023-05-10T04:12:09;22.20;49.30
38746;DHT22;24488;0.000;0.000;2023-05-10T04:14:35;22.10;49.20
38746;DHT22;24488;0.000;0.000;2023-05-10T04:17:00;22.10;49.20
38746;DHT22;24488;0.000;0.000;2023-05-10T04:19:29;22.20;49.20
38746;DHT22;24488;0.000;0.000;2023-05-10T04:21:55;22.20;49.20
38746;DHT22;24488;0.000;0.000;2023-05-10T04:24:21;22.10;49.20
38746;DHT22;24488;0.000;0.000;2023-05-10T04:26:47;22.20;49.20
38746;DHT22;24488;0.000;0.000;2023-05-10T04:29:12;22.10;49.20
38746;DHT22;24488;0.000;0.000;2023-05-10T04:31:38;22.00;49.10
38746;DHT22;24488;0.000;0.000;2023-05-10T04:34:03;22.10;49.20
38746;DHT22;24488;0.000;0.000;2023-05-10T04:36:29;22.10;49.80
38746;DHT22;24488;0.000;0.000;2023-05-10T04:38:54;22.10;49.20
38746;DHT22;24488;0.000;0.000;2023-05-10T04:41:20;22.10;49.20
38746;DHT22;24488;0.000;0.000;2023-05-10T04:43:45;22.10;49.20
38746;DHT22;24488;0.000;0.000;2023-05-10T04:46:11;22.10;49.20
38746;DHT22;24488;0.000;0.000;2023-05-10T04:48:37;22.20;49.20
38746;DHT22;24488;0.000;0.000;2023-05-10T04:51:02;22.20;49.00
38746;DHT22;24488;0.000;0.000;2023-05-10T04:53:29;22.20;48.90
38746;DHT22;24488;0.000;0.000;2023-05-10T04:55:55;22.20;48.90
38746;DHT22;24488;0.000;0.000;2023-05-10T04:58:20;22.20;48.90
38746;DHT22;24488;0.000;0.000;2023-05-10T05:00:46;22.40;48.90
38746;DHT22;24488;0.000;0.000;2023-05-10T05:03:12;22.30;48.80
38746;DHT22;24488;0.000;0.000;2023-05-10T05:05:37;22.30;48.80
38746;DHT22;24488;0.000;0.000;2023-05-10T05:08:03;22.40;48.90
38746;DHT22;24488;0.000;0.000;2023-05-10T05:10:28;22.40;48.80
38746;DHT22;24488;0.000;0.000;2023-05-10T05:12:55;22.90;49.10
38746;DHT22;24488;0.000;0.000;2023-05-10T05:15:20;22.40;48.30
38746;DHT22;24488;0.000;0.000;2023-05-10T05:17:46;22.30;48.80
38746;DHT22;24488;0.000;0.000;2023-05-10T05:20:11;22.40;48.80
38746;DHT22;24488;0.000;0.000;2023-05-10T05:22:38;22.40;48.80
38746;DHT22;24488;0.000;0.000;2023-05-10T05:25:04;22.40;48.70
38746;DHT22;24488;0.000;0.000;2023-05-10T05:27:30;22.50;48.80
38746;DHT22;24488;0.000;0.000;2023-05-10T05:29:56;23.60;49.40
38746;DHT22;24488;0.000;0.000;2023-05-10T05:32:22;22.50;48.80
38746;DHT22;24488;0.000;0.000;2023-05-10T05:34:48;22.50;48.80
38746;DHT22;24488;0.000;0.000;2023-05-10T05:37:14;22.60;48.90
38746;DHT22;24488;0.000;0.000;2023-05-10T05:39:41;22.50;49.00
38746;DHT22;24488;0.000;0.000;2023-05-10T05:42:07;22.60;49.10
38746;DHT22;24488;0.000;0.000;2023-05-10T05:44:34;22.50;49.00
38746;DHT22;24488;0.000;0.000;2023-05-10T05:46:59;22.50;49.10
38746;DHT22;24488;0.000;0.000;2023-05-10T05:49:25;22.50;49.00
38746;DHT22;24488;0.000;0.000;2023-05-10T05:51:50;22.40;49.00
38746;DHT22;24488;0.000;0.000;2023-05-10T05:54:17;22.50;49.10
38746;DHT22;24488;0.000;0.000;2023-05-10T05:56:43;22.50;49.10
38746;DHT22;24488;0.000;0.000;2023-05-10T05:59:09;22.70;49.40
38746;DHT22;24488;0.000;0.000;2023-05-10T06:01:35;22.50;49.30
38746;DHT22;24488;0.000;0.000;2023-05-10T06:04:01;22.40;49.30
38746;DHT22;24488;0.000;0.000;2023-05-10T06:06:26;22.50;49.40
38746;DHT22;24488;0.000;0.000;2023-05-10T06:08:52;22.70;49.70
38746;DHT22;24488;0.000;0.000;2023-05-10T06:11:18;22.60;49.70
38746;DHT22;24488;0.000;0.000;2023-05-10T06:13:44;22.50;49.50
38746;DHT22;24488;0.000;0.000;2023-05-10T06:16:09;22.60;49.60
38746;DHT22;24488;0.000;0.000;2023-05-10T06:18:35;22.50;49.50
38746;DHT22;24488;0.000;0.000;2023-05-10T06:21:01;22.60;49.70
38746;DHT22;24488;0.000;0.000;2023-05-10T06:23:27;22.70;49.70
38746;DHT22;24488;0.000;0.000;2023-05-10T06:25:52;22.60;49.60
38746;DHT22;24488;0.000;0.000;2023-05-10T06:28:18;22.60;49.60
38746;DHT22;24488;0.000;0.000;2023-05-10T06:30:43;22.50;49.60
38746;DHT22;24488;0.000;0.000;2023-05-10T06:33:09;22.60;49.70
38746;DHT22;24488;0.000;0.000;2023-05-10T06:35:35;22.50;49.60
38746;DHT22;24488;0.000;0.000;2023-05-10T06:38:01;22.50;49.60
38746;DHT22;24488;0.000;0.000;2023-05-10T06:40:27;22.50;49.50
38746;DHT22;24488;0.000;0.000;2023-05-10T06:42:53;22.50;49.50
38746;DHT22;24488;0.000;0.000;2023-05-10T06:45:18;22.70;49.70
38746;DHT22;24488;0.000;0.000;2023-05-10T06:47:44;22.50;49.50
38746;DHT22;24488;0.000;0.000;2023-05-10T06:50:10;22.50;49.50
38746;DHT22;24488;0.000;0.000;2023-05-10T06:52:36;22.60;49.60
38746;DHT22;24488;0.000;0.000;2023-05-10T06:55:03;22.60;49.50
38746;DHT22;24488;0.000;0.000;2023-05-10T06:57:29;22.50;49.50
38746;DHT22;24488;0.000;0.000;2023-05-10T06:59:54;22.50;49.50
38746;DHT22;24488;0.000;0.000;2023-05-10T07:02:21;22.60;49.50
38746;DHT22;24488;0.000;0.000;2023-05-10T07:04:47;22.50;49.40
38746;DHT22;24488;0.000;0.000;2023-05-10T07:07:14;22.60;49.50
38746;DHT22;24488;0.000;0.000;2023-05-10T07:09:39;22.60;49.50
38746;DHT22;24488;0.000;0.000;2023-05-10T07:12:05;22.50;49.40
38746;DHT22;24488;0.000;0.000;2023-05-10T07:14:31;22.50;49.40
38746;DHT22;24488;0.000;0.000;2023-05-10T07:16:56;22.50;49.40
38746;DHT22;24488;0.000;0.000;2023-05-10T07:19:22;22.50;49.40
38746;DHT22;24488;0.000;0.000;2023-05-10T07:21:47;22.60;49.40
38746;DHT22;24488;0.000;0.000;2023-05-10T07:24:13;22.50;49.40
38746;DHT22;24488;0.000;0.000;2023-05-10T07:26:38;22.50;49.40
38746;DHT22;24488;0.000;0.000;2023-05-10T07:29:04;22.50;49.50
38746;DHT22;24488;0.000;0.000;2023-05-10T07:31:30;22.60;49.40
38746;DHT22;24488;0.000;0.000;2023-05-10T07:33:55;22.50;49.30
38746;DHT22;24488;0.000;0.000;2023-05-10T07:36:21;22.70;49.30
38746;DHT22;24488;0.000;0.000;2023-05-10T07:38:47;22.50;49.20
38746;DHT22;24488;0.000;0.000;2023-05-10T07:41:12;22.50;49.10
38746;DHT22;24488;0.000;0.000;2023-05-10T07:43:38;22.70;49.20
38746;DHT22;24488;0.000;0.000;2023-05-10T07:46:03;22.70;49.20
38746;DHT22;24488;0.000;0.000;2023-05-10T07:48:29;22.60;49.20
38746;DHT22;24488;0.000;0.000;2023-05-10T07:50:55;22.60;49.20
38746;DHT22;24488;0.000;0.000;2023-05-10T07:53:20;22.50;49.20
38746;DHT22;24488;0.000;0.000;2023-05-10T07:55:49;22.60;49.20
38746;DHT22;24488;0.000;0.000;2023-05-10T07:58:16;22.50;49.10
38746;DHT22;24488;0.000;0.000;2023-05-10T08:00:41;22.50;49.10
38746;DHT22;24488;0.000;0.000;2023-05-10T08:03:07;22.60;49.20
38746;DHT22;24488;0.000;0.000;2023-05-10T08:05:33;22.50;49.10
38746;DHT22;24488;0.000;0.000;2023-05-10T08:07:59;22.60;49.10
38746;DHT22;24488;0.000;0.000;2023-05-10T08:10:24;22.40;49.00
38746;DHT22;24488;0.000;0.000;2023-05-10T08:12:50;22.50;48.80
38746;DHT22;24488;0.000;0.000;2023-05-10T08:15:16;22.50;49.00
38746;DHT22;24488;0.000;0.000;2023-05-10T08:17:42;22.50;49.20
38746;DHT22;24488;0.000;0.000;2023-05-10T08:20:08;22.50;49.40
38746;DHT22;24488;0.000;0.000;2023-05-10T08:22:34;22.50;49.50
38746;DHT22;24488;0.000;0.000;2023-05-10T08:25:00;22.50;49.60
38746;DHT22;24488;0.000;0.000;2023-05-10T08:27:25;22.50;49.60
38746;DHT22;24488;0.000;0.000;2023-05-10T08:29:51;22.50;49.60
38746;DHT22;24488;0.000;0.000;2023-05-10T08:32:17;22.40;50.20
38746;DHT22;24488;0.000;0.000;2023-05-10T08:34:42;22.40;49.70
38746;DHT22;24488;0.000;0.000;2023-05-10T08:37:08;22.50;49.90
38746;DHT22;24488;0.000;0.000;2023-05-10T08:39:34;22.40;49.70
38746;DHT22;24488;0.000;0.000;2023-05-10T08:42:01;22.50;49.80
38746;DHT22;24488;0.000;0.000;2023-05-10T08:44:27;22.50;49.70
38746;DHT22;24488;0.000;0.000;2023-05-10T08:46:54;22.40;49.40
38746;DHT22;24488;0.000;0.000;2023-05-10T08:49:20;22.50;49.60
38746;DHT22;24488;0.000;0.000;2023-05-10T08:51:53;22.60;49.50
38746;DHT22;24488;0.000;0.000;2023-05-10T08:54:21;22.50;49.30
38746;DHT22;24488;0.000;0.000;2023-05-10T08:56:47;22.50;49.20
38746;DHT22;24488;0.000;0.000;2023-05-10T08:59:12;22.50;49.10
38746;DHT22;24488;0.000;0.000;2023-05-10T09:01:39;22.50;49.00
38746;DHT22;24488;0.000;0.000;2023-05-10T09:04:05;22.50;49.10
38746;DHT22;24488;0.000;0.000;2023-05-10T09:06:31;22.50;49.10
38746;DHT22;24488;0.000;0.000;2023-05-10T09:08:57;22.50;49.20
38746;DHT22;24488;0.000;0.000;2023-05-10T09:11:23;22.30;49.10
38746;DHT22;24488;0.000;0.000;2023-05-10T09:13:49;22.40;49.10
38746;DHT22;24488;0.000;0.000;2023-05-10T09:16:15;22.40;49.10
38746;DHT22;24488;0.000;0.000;2023-05-10T09:18:41;22.40;49.20
38746;DHT22;24488;0.000;0.000;2023-05-10T09:21:07;22.50;49.30
38746;DHT22;24488;0.000;0.000;2023-05-10T09:23:33;22.40;49.20
38746;DHT22;24488;0.000;0.000;2023-05-10T09:26:05;22.40;49.20
38746;DHT22;24488;0.000;0.000;2023-05-10T09:28:34;22.40;49.20
38746;DHT22;24488;0.000;0.000;2023-05-10T09:31:15;23.50;49.70
38746;DHT22;24488;0.000;0.000;2023-05-10T09:33:44;22.30;49.20
38746;DHT22;24488;0.000;0.000;2023-05-10T09:36:13;22.30;49.20
38746;DHT22;24488;0.000;0.000;2023-05-10T09:38:46;22.40;49.20
38746;DHT22;24488;0.000;0.000;2023-05-10T09:41:17;22.30;49.20
38746;DHT22;24488;0.000;0.000;2023-05-10T09:43:49;22.20;49.10
38746;DHT22;24488;0.000;0.000;2023-05-10T09:46:15;22.20;49.10
38746;DHT22;24488;0.000;0.000;2023-05-10T09:48:45;22.40;49.20
38746;DHT22;24488;0.000;0.000;2023-05-10T09:51:22;22.20;49.20
38746;DHT22;24488;0.000;0.000;2023-05-10T09:53:49;22.20;49.10
38746;DHT22;24488;0.000;0.000;2023-05-10T09:56:37;22.20;49.10
38746;DHT22;24488;0.000;0.000;2023-05-10T09:59:05;22.30;49.20
38746;DHT22;24488;0.000;0.000;2023-05-10T10:01:31;22.20;49.10
38746;DHT22;24488;0.000;0.000;2023-05-10T10:03:57;22.20;49.10
38746;DHT22;24488;0.000;0.000;2023-05-10T10:06:23;22.20;49.10
38746;DHT22;24488;0.000;0.000;2023-05-10T10:08:49;22.10;49.10
38746;DHT22;24488;0.000;0.000;2023-05-10T10:11:15;22.40;49.40
38746;DHT22;24488;0.000;0.000;2023-05-10T10:13:41;22.20;49.10
38746;DHT22;24488;0.000;0.000;2023-05-10T10:16:08;22.20;49.10
38746;DHT22;24488;0.000;0.000;2023-05-10T10:18:34;22.20;49.10
38746;DHT22;24488;0.000;0.000;2023-05-10T10:21:07;22.20;49.10
38746;DHT22;24488;0.000;0.000;2023-05-10T10:23:34;22.20;49.10
38746;DHT22;24488;0.000;0.000;2023-05-10T10:26:00;22.20;49.10
38746;DHT22;24488;0.000;0.000;2023-05-10T10:31:00;22.10;49.00
38746;DHT22;24488;0.000;0.000;2023-05-10T10:33:49;22.10;49.00
38746;DHT22;24488;0.000;0.000;2023-05-10T10:36:21;22.10;49.00
38746;DHT22;24488;0.000;0.000;2023-05-10T10:47:06;22.10;48.90
38746;DHT22;24488;0.000;0.000;2023-05-10T10:54:39;22.10;48.90
38746;DHT22;24488;0.000;0.000;2023-05-10T10:57:10;22.10;48.90
38746;DHT22;24488;0.000;0.000;2023-05-10T10:59:42;22.10;48.90
38746;DHT22;24488;0.000;0.000;2023-05-10T11:05:08;22.10;48.90
38746;DHT22;24488;0.000;0.000;2023-05-10T11:07:58;22.10;48.90
38746;DHT22;24488;0.000;0.000;2023-05-10T11:10:25;22.10;48.80
38746;DHT22;24488;0.000;0.000;2023-05-10T11:13:01;22.20;48.90
38746;DHT22;24488;0.000;0.000;2023-05-10T11:15:35;22.10;48.80
38746;DHT22;24488;0.000;0.000;2023-05-10T11:20:43;22.10;48.80
38746;DHT22;24488;0.000;0.000;2023-05-10T11:23:12;22.20;48.80
38746;DHT22;24488;0.000;0.000;2023-05-10T11:25:44;22.00;48.70
38746;DHT22;24488;0.000;0.000;2023-05-10T11:28:11;22.10;48.80
38746;DHT22;24488;0.000;0.000;2023-05-10T11:30:41;22.00;48.70
38746;DHT22;24488;0.000;0.000;2023-05-10T11:33:08;22.10;48.70
38746;DHT22;24488;0.000;0.000;2023-05-10T11:35:38;23.10;49.20
38746;DHT22;24488;0.000;0.000;2023-05-10T11:38:07;22.00;48.70
38746;DHT22;24488;0.000;0.000;2023-05-10T11:40:34;22.00;48.70
38746;DHT22;24488;0.000;0.000;2023-05-10T11:43:01;22.00;48.70
38746;DHT22;24488;0.000;0.000;2023-05-10T11:45:28;22.00;48.60
38746;DHT22;24488;0.000;0.000;2023-05-10T11:47:55;22.00;49.20
38746;DHT22;24488;0.000;0.000;2023-05-10T11:50:20;22.00;48.60
38746;DHT22;24488;0.000;0.000;2023-05-10T11:52:50;21.90;48.80
38746;DHT22;24488;0.000;0.000;2023-05-10T11:55:17;22.10;48.70
38746;DHT22;24488;0.000;0.000;2023-05-10T11:57:42;22.10;48.70
38746;DHT22;24488;0.000;0.000;2023-05-10T12:00:11;22.10;48.70
38746;DHT22;24488;0.000;0.000;2023-05-10T12:02:37;22.00;48.80
38746;DHT22;24488;0.000;0.000;2023-05-10T12:05:03;22.00;48.60
38746;DHT22;24488;0.000;0.000;2023-05-10T12:07:30;22.00;48.60
38746;DHT22;24488;0.000;0.000;2023-05-10T12:10:02;22.00;48.60
38746;DHT22;24488;0.000;0.000;2023-05-10T12:12:41;22.00;48.60
38746;DHT22;24488;0.000;0.000;2023-05-10T12:15:11;22.00;48.60
38746;DHT22;24488;0.000;0.000;2023-05-10T12:17:38;22.00;48.60
38746;DHT22;24488;0.000;0.000;2023-05-10T12:22:45;22.00;48.60
38746;DHT22;24488;0.000;0.000;2023-05-10T12:25:17;22.10;48.70
38746;DHT22;24488;0.000;0.000;2023-05-10T12:27:50;22.00;48.50
38746;DHT22;24488;0.000;0.000;2023-05-10T12:30:23;22.00;48.60
38746;DHT22;24488;0.000;0.000;2023-05-10T12:32:50;22.00;48.60
38746;DHT22;24488;0.000;0.000;2023-05-10T12:35:16;22.00;48.60
38746;DHT22;24488;0.000;0.000;2023-05-10T12:37:42;21.90;48.50
38746;DHT22;24488;0.000;0.000;2023-05-10T12:40:09;22.10;48.60
38746;DHT22;24488;0.000;0.000;2023-05-10T12:42:36;21.90;48.50
38746;DHT22;24488;0.000;0.000;2023-05-10T12:45:04;21.90;48.50
38746;DHT22;24488;0.000;0.000;2023-05-10T12:47:31;21.90;48.50
38746;DHT22;24488;0.000;0.000;2023-05-10T12:49:56;21.90;48.50
38746;DHT22;24488;0.000;0.000;2023-05-10T12:52:22;21.80;48.40
38746;DHT22;24488;0.000;0.000;2023-05-10T12:54:48;23.30;49.10
38746;DHT22;24488;0.000;0.000;2023-05-10T12:57:14;21.90;48.50
38746;DHT22;24488;0.000;0.000;2023-05-10T12:59:40;21.80;48.40
38746;DHT22;24488;0.000;0.000;2023-05-10T13:02:05;21.90;48.40
38746;DHT22;24488;0.000;0.000;2023-05-10T13:04:31;22.00;48.50
38746;DHT22;24488;0.000;0.000;2023-05-10T13:06:57;21.90;48.40
38746;DHT22;24488;0.000;0.000;2023-05-10T13:09:24;22.00;48.50
38746;DHT22;24488;0.000;0.000;2023-05-10T13:11:50;21.90;48.40
38746;DHT22;24488;0.000;0.000;2023-05-10T13:14:16;22.00;48.50
38746;DHT22;24488;0.000;0.000;2023-05-10T13:16:41;21.90;48.40
38746;DHT22;24488;0.000;0.000;2023-05-10T13:19:07;21.90;48.50
38746;DHT22;24488;0.000;0.000;2023-05-10T13:21:32;21.90;48.50
38746;DHT22;24488;0.000;0.000;2023-05-10T13:23:58;21.90;48.40
38746;DHT22;24488;0.000;0.000;2023-05-10T13:26:24;21.80;48.40
38746;DHT22;24488;0.000;0.000;2023-05-10T13:28:50;21.90;48.40
38746;DHT22;24488;0.000;0.000;2023-05-10T13:31:16;22.00;48.50
38746;DHT22;24488;0.000;0.000;2023-05-10T13:33:42;21.90;48.40
38746;DHT22;24488;0.000;0.000;2023-05-10T13:36:07;21.90;48.40
38746;DHT22;24488;0.000;0.000;2023-05-10T13:38:34;21.90;48.40
38746;DHT22;24488;0.000;0.000;2023-05-10T13:40:59;22.00;48.50
38746;DHT22;24488;0.000;0.000;2023-05-10T13:43:25;21.90;48.40
38746;DHT22;24488;0.000;0.000;2023-05-10T13:45:51;21.80;48.40
38746;DHT22;24488;0.000;0.000;2023-05-10T13:48:17;21.80;48.40
38746;DHT22;24488;0.000;0.000;2023-05-10T13:50:42;21.90;48.40
38746;DHT22;24488;0.000;0.000;2023-05-10T13:53:08;21.80;48.30
38746;DHT22;24488;0.000;0.000;2023-05-10T13:55:34;21.90;48.40
38746;DHT22;24488;0.000;0.000;2023-05-10T13:57:59;22.00;48.50
38746;DHT22;24488;0.000;0.000;2023-05-10T14:00:25;21.80;48.30
38746;DHT22;24488;0.000;0.000;2023-05-10T14:02:50;21.90;48.40
38746;DHT22;24488;0.000;0.000;2023-05-10T14:05:16;21.90;48.40
38746;DHT22;24488;0.000;0.000;2023-05-10T14:07:42;21.80;48.30
38746;DHT22;24488;0.000;0.000;2023-05-10T14:10:07;22.00;48.40
38746;DHT22;24488;0.000;0.000;2023-05-10T14:12:33;21.90;48.30
38746;DHT22;24488;0.000;0.000;2023-05-10T14:14:58;21.80;48.30
38746;DHT22;24488;0.000;0.000;2023-05-10T14:17:24;21.80;48.30
38746;DHT22;24488;0.000;0.000;2023-05-10T14:19:50;21.90;48.30
38746;DHT22;24488;0.000;0.000;2023-05-10T14:22:15;21.80;48.30
38746;DHT22;24488;0.000;0.000;2023-05-10T14:24:41;21.90;48.30
38746;DHT22;24488;0.000;0.000;2023-05-10T14:27:06;21.80;48.30
38746;DHT22;24488;0.000;0.000;2023-05-10T14:29:32;21.90;48.30
38746;DHT22;24488;0.000;0.000;2023-05-10T14:31:58;21.70;48.30
38746;DHT22;24488;0.000;0.000;2023-05-10T14:34:23;21.80;48.30
38746;DHT22;24488;0.000;0.000;2023-05-10T14:36:49;21.90;48.40
38746;DHT22;24488;0.000;0.000;2023-05-10T14:39:15;21.70;48.30
38746;DHT22;24488;0.000;0.000;2023-05-10T14:41:40;21.90;48.30
38746;DHT22;24488;0.000;0.000;2023-05-10T14:44:08;21.80;48.20
38746;DHT22;24488;0.000;0.000;2023-05-10T14:46:33;21.80;48.20
38746;DHT22;24488;0.000;0.000;2023-05-10T14:48:59;21.80;48.20
38746;DHT22;24488;0.000;0.000;2023-05-10T14:51:25;22.00;48.30
38746;DHT22;24488;0.000;0.000;2023-05-10T14:53:50;21.90;48.20
38746;DHT22;24488;0.000;0.000;2023-05-10T14:56:16;21.90;48.30
38746;DHT22;24488;0.000;0.000;2023-05-10T14:58:41;21.80;48.20
38746;DHT22;24488;0.000;0.000;2023-05-10T15:01:07;22.00;48.40
38746;DHT22;24488;0.000;0.000;2023-05-10T15:03:32;21.80;48.20
38746;DHT22;24488;0.000;0.000;2023-05-10T15:05:58;21.70;48.20
38746;DHT22;24488;0.000;0.000;2023-05-10T15:08:24;21.80;48.20
38746;DHT22;24488;0.000;0.000;2023-05-10T15:10:52;21.90;48.30
38746;DHT22;24488;0.000;0.000;2023-05-10T15:13:20;21.90;48.30
38746;DHT22;24488;0.000;0.000;2023-05-10T15:15:46;21.80;48.20
38746;DHT22;24488;0.000;0.000;2023-05-10T15:18:11;21.90;48.30
38746;DHT22;24488;0.000;0.000;2023-05-10T15:20:37;21.80;48.20
38746;DHT22;24488;0.000;0.000;2023-05-10T15:23:03;21.90;48.20
38746;DHT22;24488;0.000;0.000;2023-05-10T15:25:28;21.80;48.20
38746;DHT22;24488;0.000;0.000;2023-05-10T15:27:54;21.70;48.10
38746;DHT22;24488;0.000;0.000;2023-05-10T15:30:20;21.80;48.20
38746;DHT22;24488;0.000;0.000;2023-05-10T15:32:45;21.90;48.20
38746;DHT22;24488;0.000;0.000;2023-05-10T15:35:11;21.80;48.20
38746;DHT22;24488;0.000;0.000;2023-05-10T15:37:37;21.70;48.30
38746;DHT22;24488;0.000;0.000;2023-05-10T15:40:03;21.80;48.20
38746;DHT22;24488;0.000;0.000;2023-05-10T15:42:29;21.80;48.10
38746;DHT22;24488;0.000;0.000;2023-05-10T15:44:56;21.80;48.10
38746;DHT22;24488;0.000;0.000;2023-05-10T15:47:21;21.80;48.20
38746;DHT22;24488;0.000;0.000;2023-05-10T15:49:47;21.90;48.20
38746;DHT22;24488;0.000;0.000;2023-05-10T15:52:12;21.80;48.20
38746;DHT22;24488;0.000;0.000;2023-05-10T15:54:38;21.90;48.20
38746;DHT22;24488;0.000;0.000;2023-05-10T15:57:03;21.80;48.10
38746;DHT22;24488;0.000;0.000;2023-05-10T15:59:29;21.70;48.10
38746;DHT22;24488;0.000;0.000;2023-05-10T16:01:55;21.80;48.20
38746;DHT22;24488;0.000;0.000;2023-05-10T16:04:21;21.90;48.20
38746;DHT22;24488;0.000;0.000;2023-05-10T16:06:47;21.80;48.10
38746;DHT22;24488;0.000;0.000;2023-05-10T16:09:13;21.80;48.10
38746;DHT22;24488;0.000;0.000;2023-05-10T16:11:38;22.00;48.20
38746;DHT22;24488;0.000;0.000;2023-05-10T16:14:04;21.80;48.20
38746;DHT22;24488;0.000;0.000;2023-05-10T16:16:29;22.00;48.30
38746;DHT22;24488;0.000;0.000;2023-05-10T16:18:56;22.10;48.30